Ljuta — J8B4127 — position and weather

sailwx.info

Track history (hours):
 
Tides and Currents Weather Stations Pressure Air Temp Water Temp Dewpoint Dewpoint Depression Visibility Wind Speed Wind Dir Waves Ship Positions

Ljuta

Last reported at 2017-Nov-18 19:02 UTC. Time now 2017-Nov-22 05:36 UTC.
Position N 35°43' W 000°38'.

Length 177 m; draft 9.6 m.

Type: Cargo ship. MMSI: 377715000.

Date/timePositionNaut miles runAvg speedWind from/ knotsBaromVisibWave heightAir tempDewpointWater temp
2017-Nov-18 19:02N 35°43' W 000°38'0 0.0
2017-Nov-18 18:50N 35°43' W 000°38'  
2017-Nov-12 06:15N 35°59' W 005°09'313.8
2017-Nov-12 06:00N 35°58' W 005°13'713.9
2017-Nov-12 05:31N 35°58' W 005°22'17412.5
2017-Nov-11 15:37N 36°29' W 008°54'312.3
2017-Nov-11 15:22N 36°30' W 008°57'412.1
2017-Nov-11 15:00N 36°31' W 009°02'612.0
2017-Nov-11 14:30N 36°33' W 009°09'612.2
2017-Nov-11 14:00N 36°35' W 009°17'612.7
2017-Nov-11 13:30N 36°39' W 009°22'712.7
2017-Nov-11 12:57N 36°45' W 009°28'2112.4
2017-Nov-11 11:16N 37°04' W 009°37'312.4
2017-Nov-11 11:00N 37°07' W 009°38'612.3
2017-Nov-11 10:30N 37°13' W 009°40'1312.7
2017-Nov-11 09:30N 37°26' W 009°44'713.1
2017-Nov-11 09:00N 37°32' W 009°46'713.0
2017-Nov-11 08:29N 37°39' W 009°48'612.8
2017-Nov-11 08:00N 37°45' W 009°50'612.7
2017-Nov-11 07:30N 37°51' W 009°52'712.6
2017-Nov-11 06:59N 37°57' W 009°54'612.6
2017-Nov-11 06:30N 38°03' W 009°55'612.6
2017-Nov-11 06:00N 38°09' W 009°57'612.7
2017-Nov-11 05:30N 38°15' W 009°59'612.6
2017-Nov-11 05:00N 38°22' W 010°01'612.9
2017-Nov-11 04:30N 38°28' W 010°03'712.8
2017-Nov-11 04:00N 38°34' W 010°04'612.4
2017-Nov-11 03:30N 38°40' W 010°06'612.6
2017-Nov-11 03:00N 38°46' W 010°06'612.6
2017-Nov-11 02:30N 38°53' W 010°06'612.1
2017-Nov-11 02:00N 38°59' W 010°06'612.2
2017-Nov-11 01:30N 39°05' W 010°06'612.6
2017-Nov-11 01:00N 39°11' W 010°06'712.1
2017-Nov-11 00:27N 39°18' W 010°07'  
2017-Nov-08 19:27N 49°11' W 005°01'  
Track history (hours):
 
Tides and Currents Weather Stations Pressure Air Temp Water Temp Dewpoint Dewpoint Depression Visibility Wind Speed Wind Dir Waves Ship Positions

Ljuta

Last reported at 2017-Nov-18 19:02 UTC. Time now 2017-Nov-22 05:36 UTC.
Position N 35°43' W 000°38'.

Length 177 m; draft 9.6 m.

Type: Cargo ship. MMSI: 377715000.

Date/timePositionNaut miles runAvg speedWind from/ knotsBaromVisibWave heightAir tempDewpointWater temp
2017-Nov-18 19:02N 35°43' W 000°38'0 0.0
2017-Nov-18 18:50N 35°43' W 000°38'  
2017-Nov-12 06:15N 35°59' W 005°09'313.8
2017-Nov-12 06:00N 35°58' W 005°13'713.9
2017-Nov-12 05:31N 35°58' W 005°22'17412.5
2017-Nov-11 15:37N 36°29' W 008°54'312.3
2017-Nov-11 15:22N 36°30' W 008°57'412.1
2017-Nov-11 15:00N 36°31' W 009°02'612.0
2017-Nov-11 14:30N 36°33' W 009°09'612.2
2017-Nov-11 14:00N 36°35' W 009°17'612.7
2017-Nov-11 13:30N 36°39' W 009°22'712.7
2017-Nov-11 12:57N 36°45' W 009°28'2112.4
2017-Nov-11 11:16N 37°04' W 009°37'312.4
2017-Nov-11 11:00N 37°07' W 009°38'612.3
2017-Nov-11 10:30N 37°13' W 009°40'1312.7
2017-Nov-11 09:30N 37°26' W 009°44'713.1
2017-Nov-11 09:00N 37°32' W 009°46'713.0
2017-Nov-11 08:29N 37°39' W 009°48'612.8
2017-Nov-11 08:00N 37°45' W 009°50'612.7
2017-Nov-11 07:30N 37°51' W 009°52'712.6
2017-Nov-11 06:59N 37°57' W 009°54'612.6
2017-Nov-11 06:30N 38°03' W 009°55'612.6
2017-Nov-11 06:00N 38°09' W 009°57'612.7
2017-Nov-11 05:30N 38°15' W 009°59'612.6
2017-Nov-11 05:00N 38°22' W 010°01'612.9
2017-Nov-11 04:30N 38°28' W 010°03'712.8
2017-Nov-11 04:00N 38°34' W 010°04'612.4
2017-Nov-11 03:30N 38°40' W 010°06'612.6
2017-Nov-11 03:00N 38°46' W 010°06'612.6
2017-Nov-11 02:30N 38°53' W 010°06'612.1
2017-Nov-11 02:00N 38°59' W 010°06'612.2
2017-Nov-11 01:30N 39°05' W 010°06'612.6
2017-Nov-11 01:00N 39°11' W 010°06'712.1
2017-Nov-11 00:27N 39°18' W 010°07'  
2017-Nov-08 19:27N 49°11' W 005°01'  

Dump ship's entire track history